Airfield :







YOU CAN JOIN US ON...

 
LOGIN :

Register | Disclaimer

   EN    FR    IT 

 









Legend :    VFR   Marginal VFR   IFR   Intensive IFR   Very Intensive IFR
Visi :
Ceiling :
>= 8 km
>= 3000ft
5 to 8 km
1000 to 3000 ft
1500m to 5 km
500 to 1000 ft
800 to 1500m
200 to 500 ft
< 800m
< 200 ft
Symbols :   Thunderstorms  Fog  Heavy snow  Heavy precipitations  Wind > 20 kt






- Airport Elevation : 56 ft


KRKD - Knox County Regional

CURRENT METAR :
  • 090756Z AUTO 24004KT 1/2SM FG OVC002 17/17 A2978 RMK AO2 SLP083 T01720172

EXPIRED METARs :
  • 090656Z AUTO 00000KT 1 3/4SM BR OVC002 17/17 A2979 RMK AO2 RAB0558E52 SLP086 P0001 T01670167
  • 090631Z AUTO 05003KT 3/4SM -RA BR OVC002 17/17 A2977 RMK AO2 RAB0558 P0001
  • 090617Z AUTO VRB03KT 1SM -RA BR OVC002 17/17 A2979 RMK AO2 RAB0558 P0000
  • 090556Z AUTO VRB04KT 3/4SM BR OVC002 17/17 A2980 RMK AO2 SLP091 60001 T01670167 10178 20161 58013

TAF KRKD
Valid from the 09 at 06:00 until the 10 at 06:00 UTC


090540Z 0906/1006 05005KT 1/2SM FG OVC002
FM091300 05006KT 5SM BR OVC009
FM092300 04004KT 1SM BR OVC002
KZBW FIR / North America



MET'MAP, your aeronautical weather chart ! - Copyright ORBIFLY December 2007 - Disclaimer

ORBIFLY MET'MAP TEAM :

Programming & Development : Alexandra Zaïnal
Original concept : Baudouin d'Aumeries
Technical & hardware support : Manuel Goepfert
Assistance : Marc-Olivier Méhu




SOURCES & CREDITS :

   NOAA